createdAt,value
2018-08-09T00:02:14.381Z,100890.45
2018-08-09T00:04:44.896Z,100891.63
2018-08-09T00:07:15.438Z,100894.00
2018-08-09T00:09:46.059Z,100891.64
2018-08-09T00:12:16.405Z,100900.05
2018-08-09T00:14:46.823Z,100898.79
2018-08-09T00:17:17.388Z,100896.20
2018-08-09T00:19:47.948Z,100891.59
2018-08-09T00:22:18.558Z,100889.89
2018-08-09T00:24:49.162Z,100889.06
2018-08-09T00:27:21.575Z,100887.67
2018-08-09T00:29:52.148Z,100889.62
2018-08-09T00:32:22.757Z,100886.56
2018-08-09T00:34:53.237Z,100883.32
2018-08-09T00:37:23.603Z,100880.62
2018-08-09T00:39:54.161Z,100872.56
2018-08-09T00:42:24.771Z,100876.98
2018-08-09T00:44:55.251Z,100883.03
2018-08-09T00:47:25.666Z,100884.14
2018-08-09T00:49:56.016Z,100884.42
2018-08-09T00:52:26.482Z,100883.31
2018-08-09T00:54:56.964Z,100884.42
2018-08-09T00:57:27.562Z,100888.09
2018-08-09T00:59:57.944Z,100887.96
2018-08-09T01:02:28.325Z,100890.67
2018-08-09T01:04:58.802Z,100884.94
2018-08-09T01:07:29.381Z,100885.97
2018-08-09T01:09:59.875Z,100878.44
2018-08-09T01:12:30.453Z,100878.12
2018-08-09T01:15:00.944Z,100873.23
2018-08-09T01:17:31.536Z,100874.61
2018-08-09T01:20:02.116Z,100877.61
2018-08-09T01:22:32.783Z,100868.09
2018-08-09T01:25:03.488Z,100871.70
2018-08-09T01:27:34.280Z,100878.80
2018-08-09T01:30:05.135Z,100873.64
2018-08-09T01:32:35.754Z,100871.55
2018-08-09T01:35:06.120Z,100874.94
2018-08-09T01:37:36.724Z,100873.23
2018-08-09T01:40:07.874Z,100874.23
2018-08-09T01:42:54.805Z,100875.55
2018-08-09T01:45:25.242Z,100876.67
2018-08-09T01:47:55.810Z,100877.02
2018-08-09T01:50:26.305Z,100878.20
2018-08-09T01:52:56.895Z,100883.75
2018-08-09T01:55:27.473Z,100889.34
2018-08-09T01:57:58.139Z,100891.67
2018-08-09T02:00:28.759Z,100896.34
2018-08-09T02:02:59.349Z,100901.66
2018-08-09T02:05:29.809Z,100900.04
2018-08-09T02:08:00.225Z,100905.16
2018-08-09T02:10:30.978Z,100902.95
2018-08-09T02:13:01.455Z,100901.86
2018-08-09T02:15:31.927Z,100897.45
2018-08-09T02:18:02.515Z,100904.66
2018-08-09T02:20:33.123Z,100899.88
2018-08-09T02:23:03.700Z,100903.28
2018-08-09T02:25:34.284Z,100899.65
2018-08-09T02:28:04.747Z,100898.00
2018-08-09T02:30:35.362Z,100892.53
2018-08-09T02:33:06.752Z,100885.56
2018-08-09T02:35:37.397Z,100891.69
2018-08-09T02:38:08.039Z,100894.28
2018-08-09T02:40:38.578Z,100899.20
2018-08-09T02:43:09.343Z,100890.33
2018-08-09T02:45:39.872Z,100890.86
2018-08-09T02:48:10.456Z,100887.28
2018-08-09T02:50:41.057Z,100886.95
2018-08-09T02:53:11.398Z,100887.34
2018-08-09T02:55:42.001Z,100895.23
2018-08-09T02:58:12.603Z,100889.30
2018-08-09T03:00:43.256Z,100891.94
2018-08-09T03:03:13.828Z,100893.66
2018-08-09T03:05:44.235Z,100896.41
2018-08-09T03:08:14.637Z,100899.51
2018-08-09T03:10:44.997Z,100897.30
2018-08-09T03:13:15.683Z,100899.70
2018-08-09T03:15:46.270Z,100901.27
2018-08-09T03:18:16.965Z,100903.33
2018-08-09T03:20:47.340Z,100902.27
2018-08-09T03:23:17.575Z,100911.48
2018-08-09T03:25:47.883Z,100907.64
2018-08-09T03:28:18.363Z,100898.92
2018-08-09T03:30:48.882Z,100904.71
2018-08-09T03:33:19.432Z,100905.37
2018-08-09T03:35:50.037Z,100909.84
2018-08-09T03:38:20.492Z,100907.96
2018-08-09T03:40:50.975Z,100910.50
2018-08-09T03:43:21.346Z,100907.92
2018-08-09T03:45:51.946Z,100909.23
2018-08-09T03:48:22.455Z,100911.05
2018-08-09T03:50:52.918Z,100906.05
2018-08-09T03:53:23.382Z,100898.72
2018-08-09T03:55:53.779Z,100903.56
2018-08-09T03:58:24.224Z,100908.25
2018-08-09T04:00:54.611Z,100913.19
2018-08-09T04:03:25.195Z,100926.88
2018-08-09T04:05:55.709Z,100926.05
2018-08-09T04:08:26.311Z,100915.53
2018-08-09T04:10:56.878Z,100910.67
2018-08-09T04:13:27.536Z,100905.73
2018-08-09T04:15:58.150Z,100907.05
2018-08-09T04:18:28.726Z,100912.90
2018-08-09T04:20:59.410Z,100907.67
2018-08-09T04:23:29.869Z,100912.00
2018-08-09T04:26:00.622Z,100915.56
2018-08-09T04:28:31.139Z,100912.73
2018-08-09T04:31:01.568Z,100923.72
2018-08-09T04:33:31.952Z,100922.13
2018-08-09T04:36:02.443Z,100920.22
2018-08-09T04:38:32.927Z,100928.36
2018-08-09T04:41:03.533Z,100923.67
2018-08-09T04:43:34.106Z,100917.09
2018-08-09T04:46:04.655Z,100917.38
2018-08-09T04:48:35.161Z,100911.45
2018-08-09T04:51:05.742Z,100920.12
2018-08-09T04:53:36.315Z,100918.87
2018-08-09T04:56:06.867Z,100916.58
2018-08-09T04:58:37.315Z,100916.52
2018-08-09T05:01:07.752Z,100920.75
2018-08-09T05:03:38.248Z,100921.00
2018-08-09T05:06:08.846Z,100919.22
2018-08-09T05:08:39.344Z,100919.45
2018-08-09T05:11:09.796Z,100912.41
2018-08-09T05:13:40.197Z,100910.81
2018-08-09T05:16:10.867Z,100913.66
2018-08-09T05:18:41.447Z,100916.73
2018-08-09T05:21:12.760Z,100916.08
2018-08-09T05:23:43.141Z,100916.17
2018-08-09T05:26:13.708Z,100918.83
2018-08-09T05:28:44.550Z,100920.05
2018-08-09T05:31:15.315Z,100913.88
2018-08-09T05:33:45.935Z,100918.69
2018-08-09T05:36:16.523Z,100919.23
2018-08-09T05:38:46.950Z,100926.82
2018-08-09T05:41:17.442Z,100923.02
2018-08-09T05:43:47.915Z,100931.20
2018-08-09T05:46:18.447Z,100928.23
2018-08-09T05:48:48.883Z,100925.97
2018-08-09T05:51:19.419Z,100924.80
2018-08-09T05:53:49.828Z,100920.66
2018-08-09T05:56:20.221Z,100926.30
2018-08-09T05:58:50.626Z,100926.91
2018-08-09T06:01:21.105Z,100930.14
2018-08-09T06:03:51.562Z,100922.48
2018-08-09T06:06:22.254Z,100926.80
2018-08-09T06:08:52.825Z,100933.62
2018-08-09T06:11:23.508Z,100929.22
2018-08-09T06:13:55.953Z,100937.14
2018-08-09T06:16:33.084Z,100935.03
2018-08-09T06:19:03.685Z,100930.39
2018-08-09T06:21:34.307Z,100924.16
2018-08-09T06:24:04.840Z,100932.68
2018-08-09T06:26:35.347Z,100934.83
2018-08-09T06:29:05.800Z,100942.06
2018-08-09T06:31:36.461Z,100936.50
2018-08-09T06:34:06.863Z,100937.26
2018-08-09T06:36:37.461Z,100941.96
2018-08-09T06:39:09.990Z,100934.42
2018-08-09T06:41:40.636Z,100922.75
2018-08-09T06:44:11.304Z,100915.37
2018-08-09T06:46:41.910Z,100906.48
2018-08-09T06:49:12.507Z,100908.02
2018-08-09T06:51:43.125Z,100909.77
2018-08-09T06:54:13.696Z,100897.38
2018-08-09T06:56:44.385Z,100893.67
2018-08-09T06:59:14.871Z,100891.59
2018-08-09T07:01:45.459Z,100884.72
2018-08-09T07:04:16.102Z,100895.81
2018-08-09T07:06:46.615Z,100905.52
2018-08-09T07:09:16.977Z,100892.57
2018-08-09T07:11:47.496Z,100883.93
2018-08-09T07:14:18.052Z,100886.70
2018-08-09T07:16:48.605Z,100880.38
2018-08-09T07:19:19.127Z,100883.28
2018-08-09T07:21:49.603Z,100870.50
2018-08-09T07:24:19.985Z,100879.59
2018-08-09T07:26:50.560Z,100880.75
2018-08-09T07:29:21.065Z,100888.02
2018-08-09T07:31:51.767Z,100894.70
2018-08-09T07:34:22.200Z,100908.18
2018-08-09T07:36:52.796Z,100893.64
2018-08-09T07:39:23.441Z,100894.90
2018-08-09T07:41:54.166Z,100889.57
2018-08-09T07:44:24.755Z,100890.67
2018-08-09T07:46:55.389Z,100887.04
2018-08-09T07:49:25.840Z,100882.28
2018-08-09T07:51:56.419Z,100879.17
2018-08-09T07:54:27.020Z,100872.98
2018-08-09T07:56:57.642Z,100879.05
2018-08-09T07:59:28.059Z,100878.78
2018-08-09T08:01:58.456Z,100867.84
2018-08-09T08:04:28.881Z,100856.68
2018-08-09T08:06:59.304Z,100863.94
2018-08-09T08:09:29.792Z,100859.05
2018-08-09T08:12:00.372Z,100862.45
2018-08-09T08:14:30.851Z,100860.58
2018-08-09T08:17:01.447Z,100864.75
2018-08-09T08:19:32.039Z,100849.09
2018-08-09T08:22:02.607Z,100851.08
2018-08-09T08:24:32.989Z,100836.98
2018-08-09T08:27:03.479Z,100838.20
2018-08-09T08:29:33.752Z,100835.17
2018-08-09T08:32:04.215Z,100827.01
2018-08-09T08:34:34.868Z,100829.13
2018-08-09T08:37:05.823Z,100820.92
2018-08-09T08:39:36.204Z,100814.76
2018-08-09T08:42:06.621Z,100820.86
2018-08-09T08:44:37.169Z,100818.85
2018-08-09T08:47:08.201Z,100813.31
2018-08-09T08:49:38.722Z,100821.97
2018-08-09T08:52:09.315Z,100818.88
2018-08-09T08:54:39.789Z,100809.29
2018-08-09T08:57:10.884Z,100796.72
2018-08-09T08:59:41.267Z,100805.92
2018-08-09T09:02:11.854Z,100799.84
2018-08-09T09:04:42.207Z,100801.47
2018-08-09T09:07:12.743Z,100802.31
2018-08-09T09:09:43.274Z,100802.17
2018-08-09T09:12:13.874Z,100800.34
2018-08-09T09:14:44.436Z,100789.78
2018-08-09T09:17:15.035Z,100792.66
2018-08-09T09:19:45.638Z,100787.89
2018-08-09T09:22:16.117Z,100780.80
2018-08-09T09:24:46.548Z,100775.84
2018-08-09T09:27:17.119Z,100768.64
2018-08-09T09:29:47.538Z,100780.28
2018-08-09T09:32:18.106Z,100766.81
2018-08-09T09:34:48.616Z,100769.92
2018-08-09T09:37:19.103Z,100756.45
2018-08-09T09:39:49.456Z,100744.87
2018-08-09T09:42:19.969Z,100741.31
2018-08-09T09:44:50.432Z,100752.69
2018-08-09T09:47:21.001Z,100748.50
2018-08-09T09:49:51.556Z,100746.81
2018-08-09T09:52:22.041Z,100739.13
2018-08-09T09:54:52.399Z,100745.20
2018-08-09T09:57:22.947Z,100736.16
2018-08-09T09:59:53.450Z,100726.02
2018-08-09T10:02:24.121Z,100734.52
2018-08-09T10:04:54.712Z,100719.31
2018-08-09T10:07:25.356Z,100718.77
2018-08-09T10:09:55.887Z,100713.79
2018-08-09T10:12:26.467Z,100711.12
2018-08-09T10:14:57.054Z,100708.59
2018-08-09T10:17:27.395Z,100711.05
2018-08-09T10:19:57.680Z,100698.88
2018-08-09T10:22:28.262Z,100695.56
2018-08-09T10:24:58.998Z,100685.28
2018-08-09T10:27:29.653Z,100677.69
2018-08-09T10:30:00.252Z,100667.72
2018-08-09T10:32:30.851Z,100647.75
2018-08-09T10:35:01.552Z,100673.64
2018-08-09T10:37:32.203Z,100673.33
2018-08-09T10:40:02.673Z,100668.03
2018-08-09T10:42:33.134Z,100662.37
2018-08-09T10:45:03.634Z,100650.92
2018-08-09T10:47:34.219Z,100671.77
2018-08-09T10:50:04.853Z,100653.73
2018-08-09T10:52:35.549Z,100644.97
2018-08-09T10:55:06.523Z,100644.48
2018-08-09T10:57:37.096Z,100632.98
2018-08-09T11:00:10.930Z,100621.78
2018-08-09T11:02:41.524Z,100614.67
2018-08-09T11:05:12.108Z,100628.73
2018-08-09T11:07:43.392Z,100613.13
2018-08-09T11:10:13.967Z,100618.20
2018-08-09T11:12:44.466Z,100610.19
2018-08-09T11:15:14.865Z,100612.75
2018-08-09T11:17:45.348Z,100598.61
2018-08-09T11:20:15.837Z,100578.19
2018-08-09T11:22:46.548Z,100583.63
2018-08-09T11:25:17.006Z,100571.25
2018-08-09T11:27:47.234Z,100569.80
2018-08-09T11:30:17.868Z,100572.77
2018-08-09T11:32:48.344Z,100560.56
2018-08-09T11:35:18.972Z,100563.09
2018-08-09T11:37:50.831Z,100554.12
2018-08-09T11:40:21.277Z,100558.28
2018-08-09T11:42:51.807Z,100538.66
2018-08-09T11:45:22.383Z,100530.42
2018-08-09T11:47:53.113Z,100530.75
2018-08-09T11:50:23.537Z,100520.28
2018-08-09T11:52:54.042Z,100533.97
2018-08-09T11:55:24.715Z,100517.17
2018-08-09T11:57:55.481Z,100514.33
2018-08-09T12:00:26.188Z,100520.31
2018-08-09T12:02:56.775Z,100508.21
2018-08-09T12:05:27.472Z,100503.30
2018-08-09T12:07:57.979Z,100490.60
2018-08-09T12:10:28.564Z,100480.81
2018-08-09T12:12:59.225Z,100476.24
2018-08-09T12:15:29.860Z,100465.27
2018-08-09T12:18:00.570Z,100462.50
2018-08-09T12:20:31.000Z,100456.33
2018-08-09T12:23:01.609Z,100463.05
2018-08-09T12:25:32.277Z,100439.15
2018-08-09T12:28:02.856Z,100432.59
2018-08-09T12:30:33.443Z,100423.97
2018-08-09T12:33:04.146Z,100430.20
2018-08-09T12:35:34.751Z,100411.22
2018-08-09T12:38:05.418Z,100416.13
2018-08-09T12:40:35.871Z,100404.16
2018-08-09T12:43:06.875Z,100405.78
2018-08-09T12:45:37.530Z,100407.52
2018-08-09T12:48:08.085Z,100401.80
2018-08-09T12:50:38.760Z,100409.17
2018-08-09T12:53:09.451Z,100389.41
2018-08-09T12:55:40.067Z,100383.37
2018-08-09T12:58:10.727Z,100380.45
2018-08-09T13:00:41.452Z,100388.34
2018-08-09T13:03:12.136Z,100385.53
2018-08-09T13:05:42.921Z,100383.11
2018-08-09T13:08:13.315Z,100388.86
2018-08-09T13:10:43.910Z,100353.38
2018-08-09T13:13:14.323Z,100367.20
2018-08-09T13:15:47.968Z,100353.60
2018-08-09T13:18:18.557Z,100345.23
2018-08-09T13:20:49.115Z,100339.64
2018-08-09T13:23:19.704Z,100330.89
2018-08-09T13:25:50.409Z,100335.25
2018-08-09T13:28:21.095Z,100321.48
2018-08-09T13:30:51.580Z,100323.69
2018-08-09T13:33:22.160Z,100322.48
2018-08-09T13:35:52.572Z,100311.39
2018-08-09T13:38:23.019Z,100308.91
2018-08-09T13:40:53.589Z,100311.75
2018-08-09T13:43:24.176Z,100303.52
2018-08-09T13:45:54.678Z,100284.30
2018-08-09T13:48:32.733Z,100276.79
2018-08-09T13:51:03.091Z,100271.22
2018-08-09T13:53:33.718Z,100263.95
2018-08-09T13:56:04.330Z,100251.69
2018-08-09T13:58:34.865Z,100249.11
2018-08-09T14:01:05.467Z,100248.47
2018-08-09T14:03:35.926Z,100223.89
2018-08-09T14:06:06.519Z,100219.46
2018-08-09T14:08:37.195Z,100209.98
2018-08-09T14:11:07.816Z,100208.59
2018-08-09T14:13:38.471Z,100203.89
2018-08-09T14:16:10.271Z,100198.32
2018-08-09T14:18:40.951Z,100189.52
2018-08-09T14:21:12.467Z,100182.20
2018-08-09T14:23:43.155Z,100195.24
2018-08-09T14:26:14.020Z,100171.23
2018-08-09T14:28:44.523Z,100163.07
2018-08-09T14:31:15.104Z,100162.02
2018-08-09T14:33:45.798Z,100162.93
2018-08-09T14:36:16.319Z,100147.39
2018-08-09T14:38:46.908Z,100146.77
2018-08-09T14:41:17.475Z,100160.20
2018-08-09T14:43:48.148Z,100136.92
2018-08-09T14:46:18.631Z,100145.80
2018-08-09T14:48:49.201Z,100146.33
2018-08-09T14:51:19.780Z,100146.77
2018-08-09T14:53:50.376Z,100135.04
2018-08-09T14:56:21.068Z,100133.05
2018-08-09T14:58:51.753Z,100124.91
2018-08-09T15:01:22.153Z,100123.19
2018-08-09T15:03:52.655Z,100110.60
2018-08-09T15:06:23.303Z,100112.24
2018-08-09T15:08:53.932Z,100109.31
2018-08-09T15:11:25.094Z,100095.20
2018-08-09T15:13:55.813Z,100098.40
2018-08-09T15:16:26.497Z,100097.96
2018-08-09T15:18:57.071Z,100087.87
2018-08-09T15:21:27.671Z,100089.31
2018-08-09T15:23:58.302Z,100074.91
2018-08-09T15:26:28.724Z,100064.23
2018-08-09T15:28:59.231Z,100060.38
2018-08-09T15:31:29.699Z,100109.59
2018-08-09T15:34:00.194Z,100141.41
2018-08-09T15:36:30.754Z,100106.39
2018-08-09T15:39:01.343Z,100204.60
2018-08-09T15:41:31.942Z,100225.27
2018-08-09T15:44:02.720Z,100173.14
2018-08-09T15:46:33.387Z,100179.74
2018-08-09T15:49:03.936Z,100220.81
2018-08-09T15:51:34.573Z,100202.87
2018-08-09T15:54:05.272Z,100229.53
2018-08-09T15:56:35.952Z,100201.67
2018-08-09T15:59:06.645Z,100177.98
2018-08-09T16:01:37.322Z,100177.95
2018-08-09T16:04:07.800Z,100149.63
2018-08-09T16:06:38.203Z,100124.55
2018-08-09T16:09:13.753Z,100117.27
2018-08-09T16:11:44.290Z,100111.00
2018-08-09T16:14:15.008Z,100096.18
2018-08-09T16:16:45.541Z,100081.48
2018-08-09T16:19:16.095Z,100069.59
2018-08-09T16:21:46.709Z,100097.28
2018-08-09T16:24:17.191Z,100209.21
2018-08-09T16:26:47.755Z,100275.61
2018-08-09T16:29:18.243Z,100319.31
2018-08-09T16:31:48.784Z,100320.33
2018-08-09T16:34:19.459Z,100335.40
2018-08-09T16:36:49.997Z,100354.80
2018-08-09T16:39:20.467Z,100356.96
2018-08-09T16:41:51.181Z,100358.75
2018-08-09T16:44:22.084Z,100346.64
2018-08-09T16:46:52.703Z,100349.28
2018-08-09T16:49:23.431Z,100323.32
2018-08-09T16:51:54.015Z,100311.14
2018-08-09T16:54:24.717Z,100309.22
2018-08-09T16:56:55.397Z,100298.23
2018-08-09T16:59:26.085Z,100299.89
2018-08-09T17:01:56.816Z,100309.47
2018-08-09T17:04:27.542Z,100294.92
2018-08-09T17:06:58.143Z,100280.89
2018-08-09T17:09:28.800Z,100292.34
2018-08-09T17:11:59.411Z,100285.86
2018-08-09T17:14:29.957Z,100307.11
2018-08-09T17:17:00.585Z,100320.37
2018-08-09T17:19:31.173Z,100317.73
2018-08-09T17:22:01.612Z,100311.75
2018-08-09T17:24:32.121Z,100303.39
2018-08-09T17:27:02.643Z,100289.56
2018-08-09T17:29:33.331Z,100273.80
2018-08-09T17:32:03.864Z,100252.66
2018-08-09T17:34:34.499Z,100239.66
2018-08-09T17:37:05.552Z,100213.01
2018-08-09T17:39:36.181Z,100210.52
2018-08-09T17:42:06.728Z,100196.14
2018-08-09T17:44:37.449Z,100199.67
2018-08-09T17:47:08.017Z,100187.48
2018-08-09T17:49:39.043Z,100186.95
2018-08-09T17:52:09.589Z,100171.09
2018-08-09T17:54:40.171Z,100162.98
2018-08-09T17:57:11.001Z,100165.83
2018-08-09T17:59:41.628Z,100175.28
2018-08-09T18:02:12.231Z,100179.96
2018-08-09T18:04:42.923Z,100192.48
2018-08-09T18:07:13.480Z,100191.17
2018-08-09T18:09:44.188Z,100189.83
2018-08-09T18:12:15.593Z,100181.94
2018-08-09T18:14:46.679Z,100164.77
2018-08-09T18:17:17.205Z,100165.62
2018-08-09T18:19:47.721Z,100173.01
2018-08-09T18:22:49.888Z,100180.59
2018-08-09T18:25:20.681Z,100190.88
2018-08-09T18:27:54.842Z,100194.31
2018-08-09T18:30:25.521Z,100186.90
2018-08-09T18:32:56.277Z,100214.77
2018-08-09T18:35:26.997Z,100220.59
2018-08-09T18:37:57.550Z,100211.17
2018-08-09T18:40:28.793Z,100218.92
2018-08-09T18:42:59.483Z,100229.17
2018-08-09T18:45:30.120Z,100235.58
2018-08-09T18:48:00.700Z,100234.92
2018-08-09T18:50:31.863Z,100238.04
2018-08-09T18:53:02.427Z,100238.97
2018-08-09T18:55:33.081Z,100242.94
2018-08-09T18:58:03.703Z,100243.93
2018-08-09T19:00:34.383Z,100239.28
2018-08-09T19:03:05.044Z,100240.84
2018-08-09T19:05:36.170Z,100236.38
2018-08-09T19:08:06.824Z,100227.66
2018-08-09T19:10:37.417Z,100222.10
2018-08-09T19:13:08.068Z,100219.82
2018-08-09T19:15:38.457Z,100218.44
2018-08-09T19:18:09.263Z,100225.17
2018-08-09T19:20:39.780Z,100227.20
2018-08-09T19:23:10.222Z,100227.34
2018-08-09T19:25:40.832Z,100233.52
2018-08-09T19:28:11.425Z,100242.62
2018-08-09T19:30:42.107Z,100241.59
2018-08-09T19:33:12.613Z,100258.22
2018-08-09T19:35:43.356Z,100246.92
2018-08-09T19:38:13.947Z,100244.13
2018-08-09T19:40:44.588Z,100244.28
2018-08-09T19:43:15.300Z,100247.34
2018-08-09T19:45:45.864Z,100255.88
2018-08-09T19:48:16.515Z,100260.30
2018-08-09T19:50:47.152Z,100261.78
2018-08-09T19:53:17.564Z,100256.16
2018-08-09T19:55:55.280Z,100262.41
2018-08-09T19:58:25.862Z,100258.72
2018-08-09T20:00:56.463Z,100269.64
2018-08-09T20:03:27.132Z,100265.73
2018-08-09T20:08:27.269Z,100270.30
2018-08-09T20:10:57.903Z,100268.11
2018-08-09T20:13:28.443Z,100268.92
2018-08-09T20:15:59.067Z,100271.56
2018-08-09T20:18:29.623Z,100276.42
2018-08-09T20:20:59.904Z,100281.83
2018-08-09T20:23:30.097Z,100275.02
2018-08-09T20:26:00.297Z,100284.69
2018-08-09T20:28:30.680Z,100296.05
2018-08-09T20:31:01.351Z,100291.06
2018-08-09T20:33:31.803Z,100293.77
2018-08-09T20:36:02.396Z,100301.30
2018-08-09T20:38:33.077Z,100318.32
2018-08-09T20:41:03.625Z,100320.73
2018-08-09T20:43:34.134Z,100327.48
2018-08-09T20:46:04.777Z,100328.09
2018-08-09T20:48:35.279Z,100326.92
2018-08-09T20:51:05.905Z,100335.81
2018-08-09T20:53:36.460Z,100332.20
2018-08-09T20:56:07.219Z,100336.66
2018-08-09T20:58:37.837Z,100337.13
2018-08-09T21:01:08.407Z,100331.95
2018-08-09T21:03:39.051Z,100333.71
2018-08-09T21:06:09.721Z,100347.65
2018-08-09T21:08:40.815Z,100350.89
2018-08-09T21:11:11.500Z,100353.34
2018-08-09T21:13:42.133Z,100351.84
2018-08-09T21:16:12.699Z,100361.77
2018-08-09T21:18:43.270Z,100360.02
2018-08-09T21:21:13.880Z,100365.25
2018-08-09T21:23:44.443Z,100365.41
2018-08-09T21:26:15.052Z,100353.61
2018-08-09T21:28:45.697Z,100362.81
2018-08-09T21:31:23.684Z,100368.20
2018-08-09T21:33:54.459Z,100365.95
2018-08-09T21:36:25.045Z,100373.01
2018-08-09T21:38:55.553Z,100368.94
2018-08-09T21:41:26.041Z,100377.73
2018-08-09T21:43:56.614Z,100374.56
2018-08-09T21:46:27.192Z,100377.62
2018-08-09T21:48:57.807Z,100387.78
2018-08-09T21:51:28.360Z,100398.63
2018-08-09T21:53:58.920Z,100407.28
2018-08-09T21:56:29.426Z,100402.20
2018-08-09T21:59:00.096Z,100402.38
2018-08-09T22:01:30.697Z,100413.81
2018-08-09T22:04:01.409Z,100424.19
2018-08-09T22:06:36.835Z,100424.09
2018-08-09T22:09:15.413Z,100421.94
2018-08-09T22:11:50.977Z,100429.89
2018-08-09T22:14:26.401Z,100443.74
2018-08-09T22:17:01.981Z,100448.67
2018-08-09T22:19:37.545Z,100454.13
2018-08-09T22:22:11.274Z,100454.23
2018-08-09T22:24:41.866Z,100454.42
2018-08-09T22:27:12.382Z,100460.22
2018-08-09T22:29:42.896Z,100470.03
2018-08-09T22:32:13.551Z,100477.02
2018-08-09T22:34:44.151Z,100475.02
2018-08-09T22:37:14.705Z,100468.18
2018-08-09T22:39:45.307Z,100483.15
2018-08-09T22:42:15.967Z,100488.81
2018-08-09T22:44:46.508Z,100495.14
2018-08-09T22:47:17.523Z,100495.99
2018-08-09T22:49:47.865Z,100494.49
2018-08-09T22:52:18.280Z,100500.21
2018-08-09T22:54:48.875Z,100503.57
2018-08-09T22:57:19.609Z,100522.34
2018-08-09T22:59:50.196Z,100532.73
2018-08-09T23:02:20.896Z,100532.14
2018-08-09T23:04:51.467Z,100531.98
2018-08-09T23:07:22.134Z,100543.13
2018-08-09T23:09:52.562Z,100552.56
2018-08-09T23:12:23.039Z,100563.45
2018-08-09T23:14:53.396Z,100570.86
2018-08-09T23:17:23.984Z,100559.85
2018-08-09T23:19:54.555Z,100575.17
2018-08-09T23:22:24.941Z,100571.86
2018-08-09T23:24:55.639Z,100581.76
2018-08-09T23:27:26.322Z,100565.83
2018-08-09T23:29:56.909Z,100570.89
2018-08-09T23:32:27.688Z,100584.12
2018-08-09T23:34:58.382Z,100592.41
2018-08-09T23:37:28.796Z,100588.66
2018-08-09T23:39:59.242Z,100596.84
2018-08-09T23:42:29.720Z,100584.27
2018-08-09T23:45:00.280Z,100577.59
2018-08-09T23:47:30.892Z,100588.88
2018-08-09T23:50:01.632Z,100583.92
2018-08-09T23:52:32.267Z,100598.02
2018-08-09T23:55:02.860Z,100584.36
2018-08-09T23:57:33.600Z,100581.39
